Time;durP1;ratioP1;P1;durP2;ratioP2;P2;SDS_P1;SDS_P2;PMS_P1;PMS_P2;Temp;Humidity;BMP_temperature;BMP_pressure;BME280_temperature;BME280_humidity;BME280_pressure;Samples;Min_cycle;Max_cycle;Signal;HPM_P1;HPM_P2
2022/07/19 00:01:46;;;;;;;10.70;8.13;;;;;;;;;;4994222;28;20046;-79
2022/07/19 00:04:12;;;;;;;9.60;7.95;;;;;;;;;;4994197;28;20065;-78
2022/07/19 00:06:38;;;;;;;10.90;7.85;;;;;;;;;;4994262;28;20046;-78
2022/07/19 00:09:05;;;;;;;11.85;8.50;;;;;;;;;;4994162;28;20121;-77
2022/07/19 00:11:34;;;;;;;8.48;7.50;;;;;;;;;;4960250;28;20047;-79
2022/07/19 00:14:00;;;;;;;12.02;7.97;;;;;;;;;;4993853;28;20046;-79
2022/07/19 00:16:26;;;;;;;10.93;7.22;;;;;;;;;;4993709;28;20062;-79
2022/07/19 00:18:52;;;;;;;10.23;8.18;;;;;;;;;;4994729;28;20125;-79
2022/07/19 00:21:18;;;;;;;11.00;7.25;;;;;;;;;;4993493;28;20092;-78
2022/07/19 00:23:44;;;;;;;9.73;7.82;;;;;;;;;;4993848;28;20508;-79
2022/07/19 00:26:10;;;;;;;11.80;7.88;;;;;;;;;;4993636;28;20105;-77
2022/07/19 00:28:36;;;;;;;11.80;7.47;;;;;;;;;;4993635;28;20410;-79
2022/07/19 00:31:04;;;;;;;12.35;8.35;;;;;;;;;;4997712;28;20045;-78
2022/07/19 00:33:30;;;;;;;10.25;7.88;;;;;;;;;;4997675;28;20123;-78
2022/07/19 00:35:56;;;;;;;10.55;8.13;;;;;;;;;;4997233;28;20038;-79
2022/07/19 00:38:22;;;;;;;12.35;8.05;;;;;;;;;;4997804;28;20049;-78
2022/07/19 00:40:48;;;;;;;10.07;7.85;;;;;;;;;;4997427;28;20046;-77
2022/07/19 00:43:14;;;;;;;10.38;7.80;;;;;;;;;;4980270;28;20050;-79
2022/07/19 00:45:40;;;;;;;11.05;7.60;;;;;;;;;;4997610;28;20049;-78
2022/07/19 00:48:06;;;;;;;10.98;7.78;;;;;;;;;;4980605;28;20414;-79
2022/07/19 00:50:32;;;;;;;10.90;8.25;;;;;;;;;;4998553;28;20132;-78
2022/07/19 00:53:00;;;;;;;9.75;8.30;;;;;;;;;;5000959;28;20120;-78
2022/07/19 00:55:27;;;;;;;10.20;7.88;;;;;;;;;;4985294;28;20049;-79
2022/07/19 00:57:55;;;;;;;9.98;7.93;;;;;;;;;;5006917;28;20053;-78
2022/07/19 01:00:21;;;;;;;10.25;8.05;;;;;;;;;;5005087;28;20038;-78
2022/07/19 01:02:47;;;;;;;9.52;8.40;;;;;;;;;;5005060;28;20394;-78
2022/07/19 01:05:14;;;;;;;11.63;8.43;;;;;;;;;;5003753;28;20042;-78
2022/07/19 01:07:41;;;;;;;10.63;8.85;;;;;;;;;;5001061;28;20046;-79
2022/07/19 01:10:08;;;;;;;9.88;8.70;;;;;;;;;;5007198;28;20042;-79
2022/07/19 01:12:34;;;;;;;14.45;8.13;;;;;;;;;;5010385;28;20043;-79
2022/07/19 01:15:00;;;;;;;13.25;9.38;;;;;;;;;;4981296;28;20042;-78
2022/07/19 01:17:27;;;;;;;14.80;9.23;;;;;;;;;;4997300;28;20589;-78
2022/07/19 01:19:53;;;;;;;16.52;9.57;;;;;;;;;;4997646;28;20053;-78
2022/07/19 01:22:19;;;;;;;14.35;9.82;;;;;;;;;;4997314;28;20048;-79
2022/07/19 01:24:45;;;;;;;18.67;10.35;;;;;;;;;;4997407;28;20644;-78
2022/07/19 01:27:11;;;;;;;13.85;9.52;;;;;;;;;;4997256;28;20050;-79
2022/07/19 01:29:38;;;;;;;13.77;9.90;;;;;;;;;;4997664;28;20057;-78
2022/07/19 01:32:05;;;;;;;13.23;9.48;;;;;;;;;;4997016;28;20046;-78
2022/07/19 01:34:31;;;;;;;12.95;9.73;;;;;;;;;;4997352;28;20056;-78
2022/07/19 01:36:57;;;;;;;15.50;9.93;;;;;;;;;;4997312;28;20043;-79
2022/07/19 01:39:23;;;;;;;16.42;10.10;;;;;;;;;;4996820;28;20104;-78
2022/07/19 01:41:49;;;;;;;11.85;9.77;;;;;;;;;;4978707;28;20485;-78
2022/07/19 01:44:15;;;;;;;14.35;10.40;;;;;;;;;;4996669;28;20058;-79
2022/07/19 01:46:42;;;;;;;12.10;9.73;;;;;;;;;;4962813;28;20434;-79
2022/07/19 01:49:08;;;;;;;15.05;9.68;;;;;;;;;;4996765;28;20490;-78
2022/07/19 01:51:34;;;;;;;11.45;8.93;;;;;;;;;;4996582;28;20108;-79
2022/07/19 01:54:00;;;;;;;12.88;9.45;;;;;;;;;;4996392;28;20046;-79
2022/07/19 01:56:26;;;;;;;14.93;9.73;;;;;;;;;;4996041;28;20222;-79
2022/07/19 01:58:52;;;;;;;12.65;9.60;;;;;;;;;;4996246;28;20118;-78
2022/07/19 02:01:18;;;;;;;13.70;9.20;;;;;;;;;;4995933;28;20125;-79
2022/07/19 02:03:44;;;;;;;13.82;9.57;;;;;;;;;;4996300;28;20072;-78
2022/07/19 02:06:13;;;;;;;12.15;9.75;;;;;;;;;;4996075;28;20046;-78
2022/07/19 02:08:40;;;;;;;11.23;8.98;;;;;;;;;;4995847;28;20569;-78
2022/07/19 02:13:51;;;;;;;17.58;9.55;;;;;;;;;;4995807;28;20458;-79
2022/07/19 02:16:17;;;;;;;12.73;9.50;;;;;;;;;;4996027;28;20558;-78
2022/07/19 02:18:43;;;;;;;14.60;9.80;;;;;;;;;;4978446;28;20073;-78
2022/07/19 02:21:09;;;;;;;14.40;10.48;;;;;;;;;;4978506;28;20042;-78
2022/07/19 02:23:35;;;;;;;16.65;10.85;;;;;;;;;;4995796;28;20390;-78
2022/07/19 02:26:02;;;;;;;15.50;10.27;;;;;;;;;;4995517;28;20042;-79
2022/07/19 02:28:28;;;;;;;13.85;10.38;;;;;;;;;;4995605;28;20457;-79
2022/07/19 02:30:54;;;;;;;12.98;9.88;;;;;;;;;;4995515;28;20046;-79
2022/07/19 02:33:20;;;;;;;14.98;10.05;;;;;;;;;;4995401;28;20042;-79
2022/07/19 02:35:46;;;;;;;15.27;10.32;;;;;;;;;;4977846;28;20486;-79
2022/07/19 02:38:15;;;;;;;15.18;9.98;;;;;;;;;;4995664;28;20117;-79
2022/07/19 02:40:41;;;;;;;13.52;10.35;;;;;;;;;;4995476;28;20100;-79
2022/07/19 02:43:07;;;;;;;14.25;10.30;;;;;;;;;;4995606;28;20042;-78
2022/07/19 02:45:33;;;;;;;15.30;10.43;;;;;;;;;;4995479;28;20494;-79
2022/07/19 02:48:00;;;;;;;12.48;9.73;;;;;;;;;;4976979;28;20058;-79
2022/07/19 02:50:26;;;;;;;14.02;10.13;;;;;;;;;;4995220;28;20054;-79
2022/07/19 02:52:52;;;;;;;14.23;9.75;;;;;;;;;;4995338;28;20129;-78
2022/07/19 02:55:18;;;;;;;12.13;9.85;;;;;;;;;;4977445;28;20125;-79
2022/07/19 02:57:45;;;;;;;11.88;9.20;;;;;;;;;;4994859;28;20042;-78
2022/07/19 03:00:12;;;;;;;12.43;8.68;;;;;;;;;;4977764;28;20069;-79
2022/07/19 03:02:38;;;;;;;13.30;9.20;;;;;;;;;;4995471;28;20054;-78
2022/07/19 03:05:05;;;;;;;13.38;9.45;;;;;;;;;;4994724;28;20582;-78
2022/07/19 03:07:31;;;;;;;11.13;9.05;;;;;;;;;;4995059;28;20053;-79
2022/07/19 03:09:57;;;;;;;14.75;9.65;;;;;;;;;;4995266;28;20117;-78
2022/07/19 03:12:23;;;;;;;13.60;9.38;;;;;;;;;;4994788;28;20039;-78
2022/07/19 03:14:49;;;;;;;14.63;9.82;;;;;;;;;;4994583;28;20057;-79
2022/07/19 03:17:15;;;;;;;13.25;9.18;;;;;;;;;;4994428;28;20126;-79
2022/07/19 03:19:42;;;;;;;14.45;9.15;;;;;;;;;;4994743;28;20088;-79
2022/07/19 03:22:08;;;;;;;11.05;8.50;;;;;;;;;;4994675;28;20079;-78
2022/07/19 03:24:34;;;;;;;11.82;8.45;;;;;;;;;;4994529;28;20046;-78
2022/07/19 03:27:00;;;;;;;11.43;8.85;;;;;;;;;;4994721;28;20054;-79
2022/07/19 03:29:25;;;;;;;11.40;8.73;;;;;;;;;;4995112;28;20478;-79
2022/07/19 03:31:52;;;;;;;12.68;9.05;;;;;;;;;;4977004;28;20109;-78
2022/07/19 03:34:18;;;;;;;12.27;8.98;;;;;;;;;;4994504;28;20050;-78
2022/07/19 03:36:44;;;;;;;13.35;9.40;;;;;;;;;;4994472;28;20082;-79
2022/07/19 03:39:10;;;;;;;13.65;8.85;;;;;;;;;;4994618;28;20513;-78
2022/07/19 03:41:36;;;;;;;15.32;9.02;;;;;;;;;;4995559;28;20309;-78
2022/07/19 03:44:02;;;;;;;11.07;8.82;;;;;;;;;;4976898;28;20482;-78
2022/07/19 03:46:28;;;;;;;15.95;9.52;;;;;;;;;;4994762;28;20085;-78
2022/07/19 03:48:55;;;;;;;14.45;9.88;;;;;;;;;;4978434;28;20055;-77
2022/07/19 03:51:22;;;;;;;16.45;10.05;;;;;;;;;;4980020;28;20046;-78
2022/07/19 03:53:48;;;;;;;15.15;9.45;;;;;;;;;;4965930;28;20514;-78
2022/07/19 03:56:14;;;;;;;15.57;9.65;;;;;;;;;;5002642;28;20050;-78
2022/07/19 03:58:40;;;;;;;14.20;9.88;;;;;;;;;;5002602;28;20050;-78
2022/07/19 04:01:06;;;;;;;14.73;10.40;;;;;;;;;;5002071;28;20042;-78
2022/07/19 04:03:37;;;;;;;17.08;10.25;;;;;;;;;;5001397;28;20085;-78
2022/07/19 04:06:03;;;;;;;12.80;10.07;;;;;;;;;;5002614;28;20047;-78
2022/07/19 04:08:29;;;;;;;12.38;9.07;;;;;;;;;;4983310;28;20524;-78
2022/07/19 04:10:55;;;;;;;14.13;9.00;;;;;;;;;;5004154;28;20085;-78
2022/07/19 04:13:21;;;;;;;12.73;8.90;;;;;;;;;;5000978;28;20116;-78
2022/07/19 04:15:47;;;;;;;10.45;8.43;;;;;;;;;;5000505;28;20378;-78
2022/07/19 04:18:13;;;;;;;11.18;8.43;;;;;;;;;;5000744;28;20104;-78
2022/07/19 04:20:39;;;;;;;11.40;8.50;;;;;;;;;;4983081;28;20050;-78
2022/07/19 04:23:05;;;;;;;11.18;8.23;;;;;;;;;;5001773;28;20053;-78
2022/07/19 04:25:31;;;;;;;12.82;8.70;;;;;;;;;;5002834;28;20042;-79
2022/07/19 04:27:57;;;;;;;10.00;8.40;;;;;;;;;;5001140;28;20046;-78
2022/07/19 04:30:24;;;;;;;11.00;8.82;;;;;;;;;;5000924;28;20449;-79
2022/07/19 04:32:50;;;;;;;14.25;8.57;;;;;;;;;;5000644;28;20052;-78
2022/07/19 04:35:16;;;;;;;15.90;8.98;;;;;;;;;;5001166;28;20050;-79
2022/07/19 04:37:42;;;;;;;16.20;9.35;;;;;;;;;;4982899;28;20122;-78
2022/07/19 04:40:12;;;;;;;14.82;9.20;;;;;;;;;;4983195;28;20042;-78
2022/07/19 04:42:39;;;;;;;17.15;9.73;;;;;;;;;;5000717;28;20046;-78
2022/07/19 04:45:05;;;;;;;11.55;8.27;;;;;;;;;;5003068;28;20069;-78
2022/07/19 04:47:31;;;;;;;12.60;9.05;;;;;;;;;;5002668;28;20058;-79
2022/07/19 04:49:57;;;;;;;14.68;9.18;;;;;;;;;;5001185;28;20136;-79
2022/07/19 04:52:23;;;;;;;15.40;9.48;;;;;;;;;;5000565;28;20054;-78
2022/07/19 04:54:49;;;;;;;12.82;8.93;;;;;;;;;;5000297;28;20085;-78
2022/07/19 04:57:15;;;;;;;15.55;9.27;;;;;;;;;;5000169;28;20049;-78
2022/07/19 04:59:42;;;;;;;12.98;9.57;;;;;;;;;;5000078;28;20457;-79
2022/07/19 05:02:08;;;;;;;15.73;9.55;;;;;;;;;;4982992;28;20047;-79
2022/07/19 05:04:34;;;;;;;14.55;8.95;;;;;;;;;;4982762;28;20072;-78
2022/07/19 05:07:00;;;;;;;16.40;9.25;;;;;;;;;;5000411;28;20046;-78
2022/07/19 05:09:27;;;;;;;12.73;9.10;;;;;;;;;;5001470;28;20079;-78
2022/07/19 05:11:53;;;;;;;13.38;9.63;;;;;;;;;;5001973;28;20047;-79
2022/07/19 05:14:20;;;;;;;11.50;8.85;;;;;;;;;;5001133;28;20129;-79
2022/07/19 05:16:47;;;;;;;16.10;9.40;;;;;;;;;;4996590;28;20401;-78
2022/07/19 05:19:13;;;;;;;16.35;8.85;;;;;;;;;;4996820;28;20046;-77
2022/07/19 05:21:39;;;;;;;12.45;8.93;;;;;;;;;;4997043;28;20177;-78
2022/07/19 05:24:06;;;;;;;15.20;9.02;;;;;;;;;;4979495;28;20042;-77
2022/07/19 05:26:33;;;;;;;12.57;9.10;;;;;;;;;;4996497;28;20085;-77
2022/07/19 05:29:02;;;;;;;21.75;9.05;;;;;;;;;;4998389;28;20089;-78
2022/07/19 05:31:28;;;;;;;16.13;9.80;;;;;;;;;;4997095;28;20144;-77
2022/07/19 05:33:54;;;;;;;14.15;9.25;;;;;;;;;;4996563;28;20050;-78
2022/07/19 05:36:20;;;;;;;13.55;8.77;;;;;;;;;;4996358;28;20050;-77
2022/07/19 05:38:46;;;;;;;11.02;8.02;;;;;;;;;;4996680;28;20046;-78
2022/07/19 05:41:12;;;;;;;14.30;8.57;;;;;;;;;;4996213;28;20053;-77
2022/07/19 05:43:39;;;;;;;11.93;8.13;;;;;;;;;;4996129;28;20038;-78
2022/07/19 05:46:06;;;;;;;12.75;8.40;;;;;;;;;;4995783;28;20093;-78
2022/07/19 05:48:32;;;;;;;14.57;8.20;;;;;;;;;;4996408;28;20046;-78
2022/07/19 05:50:59;;;;;;;11.05;8.60;;;;;;;;;;4996291;28;20066;-78
2022/07/19 05:53:30;;;;;;;10.38;7.13;;;;;;;;;;4996053;28;20053;-77
2022/07/19 05:55:56;;;;;;;11.73;8.23;;;;;;;;;;4996135;28;20054;-78
2022/07/19 05:58:24;;;;;;;10.65;7.80;;;;;;;;;;4995753;28;20101;-78
2022/07/19 06:03:35;;;;;;;10.50;7.35;;;;;;;;;;4996084;28;20486;-78
2022/07/19 06:06:01;;;;;;;9.85;7.88;;;;;;;;;;4995941;28;20126;-78
2022/07/19 06:08:27;;;;;;;10.90;7.72;;;;;;;;;;4995970;28;20129;-78
2022/07/19 06:10:53;;;;;;;10.13;7.57;;;;;;;;;;4995905;28;20046;-79
2022/07/19 06:13:20;;;;;;;8.05;7.22;;;;;;;;;;4995404;28;20042;-78
2022/07/19 06:15:46;;;;;;;9.05;7.10;;;;;;;;;;4995426;28;20120;-78
2022/07/19 06:18:12;;;;;;;9.18;7.05;;;;;;;;;;4995289;28;20409;-78
2022/07/19 06:20:38;;;;;;;8.65;7.18;;;;;;;;;;4995561;28;20042;-79
2022/07/19 06:23:04;;;;;;;9.20;6.80;;;;;;;;;;4995327;28;20514;-79
2022/07/19 06:25:33;;;;;;;9.77;6.80;;;;;;;;;;4995154;28;20042;-79
2022/07/19 06:27:59;;;;;;;10.02;7.05;;;;;;;;;;4994984;28;20043;-78
2022/07/19 06:30:25;;;;;;;9.13;6.75;;;;;;;;;;4995326;28;20054;-78
2022/07/19 06:32:51;;;;;;;9.68;7.45;;;;;;;;;;4995113;28;20046;-77
2022/07/19 06:35:17;;;;;;;9.07;6.88;;;;;;;;;;4994913;28;20043;-78
2022/07/19 06:37:43;;;;;;;9.25;7.43;;;;;;;;;;4995395;28;20046;-78
2022/07/19 06:40:09;;;;;;;11.18;6.72;;;;;;;;;;4995392;28;20042;-78
2022/07/19 06:42:35;;;;;;;10.40;7.28;;;;;;;;;;4994761;28;20486;-78
2022/07/19 06:45:04;;;;;;;10.27;7.43;;;;;;;;;;4994981;28;20038;-78
2022/07/19 06:47:32;;;;;;;10.43;7.38;;;;;;;;;;4994659;28;20138;-78
2022/07/19 06:49:58;;;;;;;8.95;7.35;;;;;;;;;;4977630;28;20046;-79
2022/07/19 06:52:25;;;;;;;11.18;6.90;;;;;;;;;;4977365;28;20038;-79
2022/07/19 06:54:51;;;;;;;7.75;6.30;;;;;;;;;;4994964;28;20121;-79
2022/07/19 06:57:17;;;;;;;9.77;7.07;;;;;;;;;;4994956;28;20047;-79
2022/07/19 06:59:46;;;;;;;9.32;6.90;;;;;;;;;;4995057;28;20042;-79
2022/07/19 07:02:12;;;;;;;8.93;6.68;;;;;;;;;;4994836;28;20099;-79
2022/07/19 07:04:38;;;;;;;10.43;6.57;;;;;;;;;;4994933;28;20046;-76
2022/07/19 07:07:04;;;;;;;7.97;6.65;;;;;;;;;;4994830;28;20381;-77
2022/07/19 07:09:30;;;;;;;9.52;6.18;;;;;;;;;;4994369;28;20045;-77
2022/07/19 07:11:56;;;;;;;8.38;6.07;;;;;;;;;;4994454;28;20046;-77
2022/07/19 07:14:22;;;;;;;9.10;6.40;;;;;;;;;;4994625;28;20042;-77
2022/07/19 07:16:51;;;;;;;8.07;6.75;;;;;;;;;;4994422;28;20042;-79
2022/07/19 07:19:17;;;;;;;10.65;6.22;;;;;;;;;;4994620;28;20057;-78
2022/07/19 07:21:44;;;;;;;7.72;6.63;;;;;;;;;;4994432;28;20050;-77
2022/07/19 07:24:10;;;;;;;9.27;6.15;;;;;;;;;;4994101;28;20125;-77
2022/07/19 07:26:36;;;;;;;8.65;5.93;;;;;;;;;;4994268;28;20046;-77
2022/07/19 07:29:03;;;;;;;9.25;5.65;;;;;;;;;;4994166;28;20537;-77
2022/07/19 07:31:29;;;;;;;9.88;5.65;;;;;;;;;;4994422;28;20050;-78
2022/07/19 07:33:55;;;;;;;9.02;5.88;;;;;;;;;;4994303;28;20093;-78
2022/07/19 07:36:21;;;;;;;9.15;5.78;;;;;;;;;;4993840;28;20042;-78
2022/07/19 07:38:47;;;;;;;8.50;5.03;;;;;;;;;;4993342;28;20486;-78
2022/07/19 07:41:13;;;;;;;6.40;5.10;;;;;;;;;;4994022;28;20486;-78
2022/07/19 07:43:39;;;;;;;7.57;4.95;;;;;;;;;;4976301;28;20387;-78
2022/07/19 07:46:05;;;;;;;7.35;4.72;;;;;;;;;;4993551;28;20065;-78
2022/07/19 07:48:31;;;;;;;6.88;5.05;;;;;;;;;;4994174;28;20046;-79
2022/07/19 07:50:57;;;;;;;6.68;5.10;;;;;;;;;;4994202;28;20050;-79
2022/07/19 07:53:23;;;;;;;8.02;4.93;;;;;;;;;;4993917;28;20461;-79
2022/07/19 07:55:49;;;;;;;9.13;5.15;;;;;;;;;;4976327;28;20042;-78
2022/07/19 07:58:15;;;;;;;7.20;4.65;;;;;;;;;;4994180;28;20499;-77
2022/07/19 08:00:41;;;;;;;7.70;5.07;;;;;;;;;;4976494;28;20501;-78
2022/07/19 08:03:08;;;;;;;8.00;4.80;;;;;;;;;;4994057;28;20494;-78
2022/07/19 08:05:34;;;;;;;7.55;4.65;;;;;;;;;;4994208;28;20047;-79
2022/07/19 08:08:00;;;;;;;8.48;4.65;;;;;;;;;;4993708;28;20514;-78
2022/07/19 08:10:27;;;;;;;5.75;4.53;;;;;;;;;;4994143;28;20046;-78
2022/07/19 08:12:53;;;;;;;5.72;4.55;;;;;;;;;;4994086;28;20500;-79
2022/07/19 08:15:20;;;;;;;6.43;4.38;;;;;;;;;;4993838;28;20097;-78
2022/07/19 08:17:46;;;;;;;9.45;5.03;;;;;;;;;;4993432;28;20052;-79
2022/07/19 08:20:12;;;;;;;9.27;5.03;;;;;;;;;;4992732;28;20050;-79
2022/07/19 08:22:38;;;;;;;8.52;4.40;;;;;;;;;;4993571;28;20047;-79
2022/07/19 08:25:04;;;;;;;6.80;4.20;;;;;;;;;;4994248;28;20058;-79
2022/07/19 08:27:30;;;;;;;6.55;4.18;;;;;;;;;;4993794;28;20181;-79
2022/07/19 08:29:56;;;;;;;5.13;3.83;;;;;;;;;;4976258;28;20058;-79
2022/07/19 08:32:22;;;;;;;6.90;3.65;;;;;;;;;;4993817;28;20042;-79
2022/07/19 08:34:48;;;;;;;5.68;3.50;;;;;;;;;;4993674;28;20051;-79
2022/07/19 08:37:14;;;;;;;5.15;3.50;;;;;;;;;;4993199;28;20478;-78
2022/07/19 08:39:40;;;;;;;4.47;3.42;;;;;;;;;;4960015;28;20057;-79
2022/07/19 08:42:07;;;;;;;4.57;3.60;;;;;;;;;;4975962;28;20045;-79
2022/07/19 08:44:35;;;;;;;6.03;3.58;;;;;;;;;;4993632;28;20042;-79
2022/07/19 08:47:01;;;;;;;7.70;3.42;;;;;;;;;;4993444;28;20062;-79
2022/07/19 08:49:27;;;;;;;5.65;3.42;;;;;;;;;;4993663;28;20112;-79
2022/07/19 08:51:53;;;;;;;5.75;3.50;;;;;;;;;;4996638;28;20042;-79
2022/07/19 08:54:19;;;;;;;5.60;3.72;;;;;;;;;;4979811;28;20125;-79
2022/07/19 08:59:31;;;;;;;6.28;3.38;;;;;;;;;;4997060;28;20042;-79
2022/07/19 09:01:57;;;;;;;7.80;3.30;;;;;;;;;;4979449;28;20050;-79
2022/07/19 09:04:28;;;;;;;5.72;3.15;;;;;;;;;;4996916;28;20386;-79
2022/07/19 09:06:58;;;;;;;5.22;3.20;;;;;;;;;;4997733;28;20042;-79
2022/07/19 09:09:25;;;;;;;4.45;3.38;;;;;;;;;;4964412;28;20054;-79
2022/07/19 09:11:52;;;;;;;4.65;3.35;;;;;;;;;;4997285;28;20100;-79
2022/07/19 09:14:19;;;;;;;4.53;3.05;;;;;;;;;;4996982;28;20105;-79
2022/07/19 09:16:51;;;;;;;4.57;3.25;;;;;;;;;;4996710;28;20508;-79
2022/07/19 09:19:17;;;;;;;8.40;3.40;;;;;;;;;;4979707;28;20046;-79
2022/07/19 09:21:53;;;;;;;5.60;3.15;;;;;;;;;;4997852;28;20103;-79
2022/07/19 09:24:20;;;;;;;7.05;2.90;;;;;;;;;;4997378;28;20058;-79
2022/07/19 09:26:56;;;;;;;4.60;3.15;;;;;;;;;;4997330;28;20053;-79
2022/07/19 09:29:22;;;;;;;6.82;3.28;;;;;;;;;;4997018;28;20038;-79
2022/07/19 09:32:18;;;;;;;5.22;3.00;;;;;;;;;;4997260;28;20046;-79
2022/07/19 09:34:57;;;;;;;5.50;3.22;;;;;;;;;;4963891;28;20112;-79
2022/07/19 09:37:25;;;;;;;5.97;3.20;;;;;;;;;;4997086;28;20052;-79
2022/07/19 09:39:53;;;;;;;5.72;3.20;;;;;;;;;;4979705;28;20070;-78
2022/07/19 09:42:23;;;;;;;4.28;3.58;;;;;;;;;;4997122;28;20100;-79
2022/07/19 09:44:57;;;;;;;6.90;3.35;;;;;;;;;;4997452;28;20406;-80
2022/07/19 09:47:35;;;;;;;6.00;3.20;;;;;;;;;;4997433;28;20086;-80
2022/07/19 09:50:05;;;;;;;4.82;3.03;;;;;;;;;;4997077;28;20050;-79
2022/07/19 09:52:33;;;;;;;4.40;2.92;;;;;;;;;;4997507;28;20196;-77
2022/07/19 09:55:00;;;;;;;4.25;3.28;;;;;;;;;;4997911;28;20406;-77
2022/07/19 09:57:27;;;;;;;5.30;3.08;;;;;;;;;;4997104;28;20042;-78
2022/07/19 09:59:56;;;;;;;5.05;2.90;;;;;;;;;;4997355;28;20039;-78
2022/07/19 10:02:23;;;;;;;5.88;3.10;;;;;;;;;;4996212;28;20043;-78
2022/07/19 10:04:50;;;;;;;8.23;3.03;;;;;;;;;;4996686;28;20093;-78
2022/07/19 10:07:17;;;;;;;3.83;3.08;;;;;;;;;;4997487;28;20509;-78
2022/07/19 10:09:44;;;;;;;4.63;3.05;;;;;;;;;;4996917;28;20049;-78
2022/07/19 10:12:11;;;;;;;6.00;3.10;;;;;;;;;;4996659;28;20093;-78
2022/07/19 10:14:37;;;;;;;6.68;3.20;;;;;;;;;;4997380;28;20035;-79
2022/07/19 10:17:07;;;;;;;6.07;3.10;;;;;;;;;;4996887;28;20042;-78
2022/07/19 10:19:35;;;;;;;5.47;3.20;;;;;;;;;;4997389;28;20120;-78
2022/07/19 10:22:02;;;;;;;4.15;3.28;;;;;;;;;;4997247;28;20054;-77
2022/07/19 10:24:47;;;;;;;5.35;2.90;;;;;;;;;;4979465;28;20050;-78
2022/07/19 10:27:14;;;;;;;5.72;3.40;;;;;;;;;;4997015;28;20050;-78
2022/07/19 10:29:46;;;;;;;4.90;3.08;;;;;;;;;;4997115;28;20046;-79
2022/07/19 10:32:14;;;;;;;3.63;2.67;;;;;;;;;;4978957;28;20136;-78
2022/07/19 10:34:40;;;;;;;3.92;2.80;;;;;;;;;;4996576;28;20074;-78
2022/07/19 10:37:06;;;;;;;5.65;3.10;;;;;;;;;;4980170;28;20042;-78
2022/07/19 10:39:38;;;;;;;4.07;3.47;;;;;;;;;;4982018;28;20078;-79
2022/07/19 10:42:04;;;;;;;5.22;3.05;;;;;;;;;;4997313;28;20605;-78
2022/07/19 10:44:30;;;;;;;6.90;3.20;;;;;;;;;;4997320;28;20444;-77
2022/07/19 10:46:56;;;;;;;5.10;3.58;;;;;;;;;;4996531;28;20050;-79
2022/07/19 10:49:41;;;;;;;4.85;2.95;;;;;;;;;;4997749;28;20054;-79
2022/07/19 10:52:30;;;;;;;6.53;3.22;;;;;;;;;;4997458;28;20058;-78
2022/07/19 10:55:14;;;;;;;4.20;3.08;;;;;;;;;;4987524;28;20116;-79
2022/07/19 10:57:40;;;;;;;6.63;3.08;;;;;;;;;;4999062;28;20046;-78
2022/07/19 11:00:26;;;;;;;5.40;3.33;;;;;;;;;;4996628;28;20043;-78
2022/07/19 11:02:53;;;;;;;4.97;3.40;;;;;;;;;;4996995;28;20553;-78
2022/07/19 11:05:23;;;;;;;4.75;3.00;;;;;;;;;;4997927;28;20042;-78
2022/07/19 11:07:50;;;;;;;4.90;3.28;;;;;;;;;;4997276;28;20477;-78
2022/07/19 11:10:23;;;;;;;4.57;3.20;;;;;;;;;;4997863;28;20093;-78
2022/07/19 11:12:50;;;;;;;5.18;3.53;;;;;;;;;;4997433;28;20232;-77
2022/07/19 11:15:16;;;;;;;7.07;3.03;;;;;;;;;;4994512;28;20043;-76
2022/07/19 11:17:59;;;;;;;3.78;2.75;;;;;;;;;;4977552;28;20042;-77
2022/07/19 11:20:29;;;;;;;3.83;2.97;;;;;;;;;;4995486;28;20046;-78
2022/07/19 11:22:57;;;;;;;5.63;3.33;;;;;;;;;;4995181;28;20577;-78
2022/07/19 11:25:30;;;;;;;5.85;3.08;;;;;;;;;;4995777;28;20050;-77
2022/07/19 11:27:57;;;;;;;5.50;3.00;;;;;;;;;;4995027;28;20042;-78
2022/07/19 11:30:23;;;;;;;3.92;2.80;;;;;;;;;;4995122;28;20043;-78
2022/07/19 11:32:54;;;;;;;7.00;3.13;;;;;;;;;;4995075;28;20054;-79
2022/07/19 11:35:20;;;;;;;4.72;3.20;;;;;;;;;;4994518;28;20414;-78
2022/07/19 11:37:46;;;;;;;5.38;3.28;;;;;;;;;;4994908;28;20172;-78
2022/07/19 11:40:13;;;;;;;4.13;3.05;;;;;;;;;;4977327;28;20057;-78
2022/07/19 11:42:44;;;;;;;4.15;3.13;;;;;;;;;;4994836;28;20043;-78
2022/07/19 11:45:23;;;;;;;5.07;3.10;;;;;;;;;;4994802;28;20072;-78
2022/07/19 11:47:50;;;;;;;3.10;2.80;;;;;;;;;;4994404;28;20137;-78
2022/07/19 11:50:22;;;;;;;3.60;2.78;;;;;;;;;;4977188;28;20124;-77
2022/07/19 11:52:52;;;;;;;4.18;2.58;;;;;;;;;;4995110;28;20046;-78
2022/07/19 11:55:39;;;;;;;4.95;2.80;;;;;;;;;;4994753;28;20096;-79
2022/07/19 11:58:10;;;;;;;6.32;3.10;;;;;;;;;;4994815;28;20497;-79
2022/07/19 12:00:36;;;;;;;6.00;3.00;;;;;;;;;;4994501;28;20417;-79
2022/07/19 12:03:04;;;;;;;4.53;2.85;;;;;;;;;;4994485;28;20047;-79
2022/07/19 12:05:36;;;;;;;4.93;3.10;;;;;;;;;;4994361;28;20047;-79
2022/07/19 12:08:04;;;;;;;7.47;2.60;;;;;;;;;;4976792;28;20050;-79
2022/07/19 12:10:34;;;;;;;5.60;2.60;;;;;;;;;;4994437;28;20053;-79
2022/07/19 12:13:02;;;;;;;4.03;2.60;;;;;;;;;;4994795;28;20047;-78
2022/07/19 12:15:42;;;;;;;4.85;2.60;;;;;;;;;;4994467;28;20096;-79
2022/07/19 12:18:08;;;;;;;3.78;3.00;;;;;;;;;;4977555;28;20052;-77
2022/07/19 12:20:37;;;;;;;5.32;2.80;;;;;;;;;;4994653;28;20047;-79
2022/07/19 12:23:18;;;;;;;4.93;2.60;;;;;;;;;;4994215;28;20058;-77
2022/07/19 12:25:45;;;;;;;5.63;2.70;;;;;;;;;;4995982;28;20425;-78
2022/07/19 12:28:11;;;;;;;3.50;2.65;;;;;;;;;;4998347;28;20056;-78
2022/07/19 12:30:38;;;;;;;4.13;2.92;;;;;;;;;;4998136;28;20054;-78
2022/07/19 12:33:08;;;;;;;3.75;2.60;;;;;;;;;;4998290;28;20042;-77
2022/07/19 12:35:47;;;;;;;3.72;2.80;;;;;;;;;;4998246;28;20042;-78
2022/07/19 12:38:16;;;;;;;5.72;2.80;;;;;;;;;;4998213;28;20043;-78
2022/07/19 12:40:43;;;;;;;3.08;2.30;;;;;;;;;;4998045;28;20097;-78
2022/07/19 12:43:13;;;;;;;5.07;2.70;;;;;;;;;;4998398;28;20190;-79
2022/07/19 12:45:42;;;;;;;3.90;3.03;;;;;;;;;;4997839;28;20524;-78
2022/07/19 12:48:10;;;;;;;5.47;2.83;;;;;;;;;;4980117;28;20062;-79
2022/07/19 12:50:41;;;;;;;3.47;2.80;;;;;;;;;;4997945;28;20152;-79
2022/07/19 12:53:08;;;;;;;3.60;2.50;;;;;;;;;;4980785;28;20046;-78
2022/07/19 12:55:35;;;;;;;5.35;2.50;;;;;;;;;;4998529;28;20038;-77
2022/07/19 12:58:05;;;;;;;3.78;2.70;;;;;;;;;;4998000;28;20505;-78
2022/07/19 13:00:31;;;;;;;4.32;2.60;;;;;;;;;;4997807;28;20104;-78
2022/07/19 13:02:57;;;;;;;7.28;2.60;;;;;;;;;;4998110;28;20102;-79
2022/07/19 13:05:24;;;;;;;4.78;2.72;;;;;;;;;;4964114;28;20054;-79
2022/07/19 13:07:50;;;;;;;4.38;2.58;;;;;;;;;;4997502;28;20049;-79
2022/07/19 13:10:17;;;;;;;2.80;2.60;;;;;;;;;;4997392;28;20038;-78
2022/07/19 13:12:43;;;;;;;4.22;2.95;;;;;;;;;;4997295;28;20050;-79
2022/07/19 13:15:13;;;;;;;4.70;2.72;;;;;;;;;;4980191;28;20050;-78
2022/07/19 13:17:39;;;;;;;4.85;2.40;;;;;;;;;;4997520;28;20108;-78
2022/07/19 13:20:08;;;;;;;3.05;2.55;;;;;;;;;;4997234;28;20348;-78
2022/07/19 13:22:34;;;;;;;5.25;2.78;;;;;;;;;;4997429;28;20525;-79
2022/07/19 13:25:00;;;;;;;3.40;2.60;;;;;;;;;;4980321;28;20137;-79
2022/07/19 13:27:26;;;;;;;4.10;2.65;;;;;;;;;;4980426;28;20047;-78
2022/07/19 13:29:52;;;;;;;3.58;2.47;;;;;;;;;;4997715;28;20393;-78
2022/07/19 13:32:18;;;;;;;4.47;2.35;;;;;;;;;;4997425;28;20065;-78
2022/07/19 13:34:44;;;;;;;4.85;2.45;;;;;;;;;;4997840;28;20046;-78
2022/07/19 13:37:10;;;;;;;3.70;2.60;;;;;;;;;;4996110;28;20054;-80
2022/07/19 13:39:45;;;;;;;3.35;2.83;;;;;;;;;;4997423;28;20050;-79
2022/07/19 13:42:11;;;;;;;3.85;2.60;;;;;;;;;;4963885;28;20051;-77
2022/07/19 13:44:37;;;;;;;4.60;2.60;;;;;;;;;;4997297;28;20113;-78
2022/07/19 13:47:03;;;;;;;4.30;2.40;;;;;;;;;;4997149;28;20430;-78
2022/07/19 13:49:29;;;;;;;5.45;2.65;;;;;;;;;;4997336;28;20054;-78
2022/07/19 13:51:55;;;;;;;4.20;2.88;;;;;;;;;;4979768;28;20050;-78
2022/07/19 13:54:21;;;;;;;3.10;2.63;;;;;;;;;;4996965;28;20042;-78
2022/07/19 13:56:47;;;;;;;4.18;2.70;;;;;;;;;;4996954;28;20126;-78
2022/07/19 13:59:13;;;;;;;6.07;2.90;;;;;;;;;;4996885;28;20125;-78
2022/07/19 14:01:39;;;;;;;4.38;2.70;;;;;;;;;;4996500;28;20516;-77
2022/07/19 14:04:05;;;;;;;5.32;2.75;;;;;;;;;;4996852;28;20375;-77
2022/07/19 14:06:32;;;;;;;5.85;2.85;;;;;;;;;;4996753;28;20077;-78
2022/07/19 14:08:58;;;;;;;3.97;2.60;;;;;;;;;;4978984;28;20100;-78
2022/07/19 14:11:24;;;;;;;4.57;2.30;;;;;;;;;;4996276;28;20053;-78
2022/07/19 14:13:50;;;;;;;3.70;2.45;;;;;;;;;;4979150;28;20465;-79
2022/07/19 14:16:16;;;;;;;4.00;2.55;;;;;;;;;;4996322;28;20129;-79
2022/07/19 14:18:42;;;;;;;5.03;3.08;;;;;;;;;;4996250;28;20070;-78
2022/07/19 14:21:08;;;;;;;4.95;3.10;;;;;;;;;;4996848;28;20058;-79
2022/07/19 14:23:34;;;;;;;5.57;3.00;;;;;;;;;;4996245;28;20046;-78
2022/07/19 14:26:01;;;;;;;3.75;2.80;;;;;;;;;;4996155;28;20046;-79
2022/07/19 14:28:27;;;;;;;5.78;2.70;;;;;;;;;;4996441;28;20046;-79
2022/07/19 14:30:53;;;;;;;3.10;2.78;;;;;;;;;;4996732;28;20038;-79
2022/07/19 14:33:19;;;;;;;4.18;2.90;;;;;;;;;;4996863;28;20053;-78
2022/07/19 14:35:45;;;;;;;4.45;2.88;;;;;;;;;;4997417;28;20397;-79
2022/07/19 14:38:11;;;;;;;6.03;3.00;;;;;;;;;;4996568;28;20132;-78
2022/07/19 14:40:37;;;;;;;5.15;3.00;;;;;;;;;;4979201;28;20081;-79
2022/07/19 14:43:03;;;;;;;7.13;2.90;;;;;;;;;;4996118;28;20054;-78
2022/07/19 14:45:29;;;;;;;4.93;3.03;;;;;;;;;;4995943;28;20142;-79